Overview Statistics Trail Chart Weather Telemetry Raw packets
 

This is the latest recevied weather packets stored in our database for station/object KO4LCK. If no packets are shown the sender has not sent any weather packets the latest 10 day(s).

<< 65 66 67 68 69 70 71 >>
Time Temp. Humidity Pressure Rain* Wind** Luminosity Snow
1788191215 31.67° C 63% 1023.1 hPa 0 mm - 665 W/m² -
1788190910 31.67° C 63% 1022.8 hPa 0 mm - 286 W/m² -
1788190608 31.67° C 62% 1022.9 hPa 0 mm - 650 W/m² -
1788190305 32.22° C 61% 1022.9 hPa 0 mm - 322 W/m² -
1788190001 32.22° C 62% 1022.9 hPa 0 mm - 641 W/m² -
1788189697 31.67° C 63% 1023 hPa 0 mm - 625 W/m² -
1788189396 30.56° C 67% 1023 hPa 0 mm - 588 W/m² -
1788189091 31.11° C 64% 1023.2 hPa 0 mm - 569 W/m² -
1788188786 30.56° C 66% 1023 hPa 0 mm - 565 W/m² -
1788188482 30.56° C 67% 1022.9 hPa 0 mm - 553 W/m² -
1788188175 30.56° C 66% 1022.7 hPa 0 mm - 539 W/m² -
1788187872 30.56° C 66% 1022.8 hPa 0 mm - 517 W/m² -
1788187568 30.56° C 68% 1023.1 hPa 0 mm - 504 W/m² -
1788187263 30° C 69% 1023 hPa 0 mm - 491 W/m² -
1788186962 30° C 68% 1022.8 hPa 0 mm - 474 W/m² -
1788186658 29.44° C 70% 1023 hPa 0 mm - 456 W/m² -
1788186354 28.89° C 70% 1022.9 hPa 0 mm - 441 W/m² -
1788186050 28.33° C 72% 1023 hPa 0 mm - 428 W/m² -
1788185748 28.33° C 71% 1022.8 hPa 0 mm - 414 W/m² -
1788185444 28.33° C 72% 1022.9 hPa 0 mm - 394 W/m² -
1788185143 27.78° C 75% 1022.8 hPa 0 mm - 378 W/m² -
1788184843 27.78° C 74% 1022.9 hPa 0 mm - 363 W/m² -
1788184541 27.22° C 74% 1023 hPa 0 mm - 346 W/m² -
1788184236 27.22° C 74% 1023 hPa 0 mm - 330 W/m² -
1788183932 27.22° C 76% 1023 hPa 0 mm - 311 W/m² -

* Rain latest hour (hover to see other rain measurements)
** Current wind speed in m/s (hover to see current wind gust speed)